createdAt,value
2019-03-24T00:02:28.182Z,10.10
2019-03-24T00:06:33.518Z,10.04
2019-03-24T00:10:39.026Z,10.00
2019-03-24T00:14:44.754Z,9.97
2019-03-24T00:18:49.834Z,9.96
2019-03-24T00:22:54.911Z,9.95
2019-03-24T00:27:00.680Z,9.90
2019-03-24T00:31:05.749Z,9.84
2019-03-24T00:35:11.606Z,9.80
2019-03-24T00:39:16.718Z,9.77
2019-03-24T00:43:23.230Z,9.72
2019-03-24T00:47:27.927Z,9.67
2019-03-24T00:51:32.786Z,9.63
2019-03-24T00:55:38.672Z,9.58
2019-03-24T00:59:43.544Z,9.53
2019-03-24T01:03:48.955Z,9.47
2019-03-24T01:07:54.827Z,9.40
2019-03-24T01:11:59.779Z,9.30
2019-03-24T01:16:05.373Z,9.25
2019-03-24T01:20:10.394Z,9.22
2019-03-24T01:24:16.039Z,9.19
2019-03-24T01:28:21.914Z,9.15
2019-03-24T01:32:26.670Z,9.11
2019-03-24T01:36:32.550Z,9.05
2019-03-24T01:40:38.272Z,9.01
2019-03-24T01:44:44.306Z,8.97
2019-03-24T01:48:49.228Z,8.96
2019-03-24T01:52:54.132Z,8.92
2019-03-24T01:56:59.144Z,8.90
2019-03-24T02:01:04.539Z,8.86
2019-03-24T02:05:10.471Z,8.84
2019-03-24T02:09:15.680Z,8.79
2019-03-24T02:13:20.402Z,8.77
2019-03-24T02:17:26.197Z,8.73
2019-03-24T02:21:32.232Z,8.72
2019-03-24T02:25:37.406Z,8.71
2019-03-24T02:29:42.262Z,8.73
2019-03-24T02:33:47.263Z,8.73
2019-03-24T02:37:52.391Z,8.73
2019-03-24T02:41:57.374Z,8.73
2019-03-24T02:46:04.452Z,8.71
2019-03-24T02:50:11.050Z,8.63
2019-03-24T02:54:15.889Z,8.60
2019-03-24T02:58:20.652Z,8.61
2019-03-24T03:02:25.401Z,8.61
2019-03-24T03:06:30.156Z,8.60
2019-03-24T03:10:34.963Z,8.57
2019-03-24T03:14:40.004Z,8.53
2019-03-24T03:18:46.000Z,8.48
2019-03-24T03:22:51.137Z,8.48
2019-03-24T03:26:56.575Z,8.44
2019-03-24T03:31:01.415Z,8.43
2019-03-24T03:35:07.681Z,8.41
2019-03-24T03:39:12.551Z,8.36
2019-03-24T03:43:17.367Z,8.32
2019-03-24T03:47:22.257Z,8.26
2019-03-24T03:51:27.121Z,8.19
2019-03-24T03:55:32.075Z,8.11
2019-03-24T03:59:36.942Z,8.05
2019-03-24T04:03:41.745Z,8.02
2019-03-24T04:07:46.616Z,7.97
2019-03-24T04:11:51.375Z,7.90
2019-03-24T04:15:56.320Z,7.84
2019-03-24T04:20:01.212Z,7.77
2019-03-24T04:24:05.996Z,7.77
2019-03-24T04:28:10.882Z,7.74
2019-03-24T04:32:15.830Z,7.57
2019-03-24T04:36:20.661Z,7.50
2019-03-24T04:40:25.406Z,7.50
2019-03-24T04:44:30.229Z,7.53
2019-03-24T04:48:35.019Z,7.56
2019-03-24T04:52:39.773Z,7.54
2019-03-24T04:56:44.596Z,7.56
2019-03-24T05:00:49.298Z,7.58
2019-03-24T05:04:54.295Z,7.59
2019-03-24T05:08:59.627Z,7.63
2019-03-24T05:13:04.361Z,7.62
2019-03-24T05:17:09.169Z,7.59
2019-03-24T05:21:14.016Z,7.57
2019-03-24T05:25:18.876Z,7.60
2019-03-24T05:29:23.616Z,7.63
2019-03-24T05:33:28.408Z,7.66
2019-03-24T05:37:33.618Z,7.72
2019-03-24T05:41:38.475Z,7.69
2019-03-24T05:45:43.191Z,7.65
2019-03-24T05:49:48.072Z,7.68
2019-03-24T05:53:52.904Z,7.68
2019-03-24T05:57:57.953Z,7.71
2019-03-24T06:02:02.718Z,7.82
2019-03-24T06:06:07.848Z,7.92
2019-03-24T06:10:12.854Z,8.07
2019-03-24T06:14:17.730Z,8.20
2019-03-24T06:18:22.619Z,8.33
2019-03-24T06:22:28.076Z,8.53
2019-03-24T06:26:33.596Z,8.75
2019-03-24T06:30:38.348Z,9.00
2019-03-24T06:34:43.166Z,9.22
2019-03-24T06:38:48.672Z,9.45
2019-03-24T06:42:54.795Z,9.64
2019-03-24T06:47:00.203Z,9.85
2019-03-24T06:51:05.311Z,10.00
2019-03-24T06:55:10.407Z,10.15
2019-03-24T06:59:16.163Z,10.30
2019-03-24T07:03:21.202Z,10.45
2019-03-24T07:07:27.404Z,10.52
2019-03-24T07:11:33.077Z,10.62
2019-03-24T07:15:38.471Z,10.72
2019-03-24T07:19:43.518Z,10.76
2019-03-24T07:23:50.364Z,10.86
2019-03-24T07:27:55.156Z,10.95
2019-03-24T07:32:00.088Z,11.06
2019-03-24T07:36:04.960Z,11.17
2019-03-24T07:40:11.331Z,11.23
2019-03-24T07:44:17.729Z,11.35
2019-03-24T07:48:23.561Z,11.44
2019-03-24T07:52:29.583Z,11.49
2019-03-24T07:56:34.430Z,11.52
2019-03-24T08:00:39.937Z,11.59
2019-03-24T08:04:44.938Z,11.69
2019-03-24T08:08:51.055Z,11.83
2019-03-24T08:12:56.542Z,11.85
2019-03-24T08:17:02.782Z,11.87
2019-03-24T08:21:07.712Z,11.92
2019-03-24T08:25:12.722Z,11.97
2019-03-24T08:29:17.534Z,12.13
2019-03-24T08:33:22.551Z,12.23
2019-03-24T08:37:28.483Z,12.28
2019-03-24T08:41:33.877Z,12.34
2019-03-24T08:45:38.970Z,12.46
2019-03-24T08:49:44.038Z,12.55
2019-03-24T08:53:49.177Z,12.69
2019-03-24T08:57:54.918Z,12.86
2019-03-24T09:02:00.965Z,12.97
2019-03-24T09:06:07.134Z,12.97
2019-03-24T09:10:13.244Z,13.21
2019-03-24T09:14:18.909Z,13.21
2019-03-24T09:18:25.681Z,13.30
2019-03-24T09:22:30.916Z,13.32
2019-03-24T09:26:36.170Z,13.40
2019-03-24T09:30:41.850Z,13.52
2019-03-24T09:34:47.298Z,13.64
2019-03-24T09:38:52.734Z,13.72
2019-03-24T09:42:59.736Z,13.89
2019-03-24T09:47:05.650Z,13.93
2019-03-24T09:51:10.808Z,14.01
2019-03-24T09:55:18.579Z,14.05
2019-03-24T09:59:24.540Z,14.11
2019-03-24T10:03:29.572Z,14.26
2019-03-24T10:07:34.803Z,14.31
2019-03-24T10:11:39.977Z,14.37
2019-03-24T10:15:46.292Z,14.47
2019-03-24T10:19:51.170Z,14.62
2019-03-24T10:23:56.406Z,14.66
2019-03-24T10:28:01.470Z,14.77
2019-03-24T10:32:08.285Z,14.92
2019-03-24T10:36:14.337Z,15.04
2019-03-24T10:40:28.519Z,15.18
2019-03-24T10:44:28.262Z,15.27
2019-03-24T10:48:34.193Z,15.34
2019-03-24T10:52:40.590Z,15.47
2019-03-24T10:56:48.741Z,15.65
2019-03-24T11:01:16.679Z,15.79
2019-03-24T11:05:21.802Z,15.85
2019-03-24T11:09:27.333Z,15.96
2019-03-24T11:13:32.252Z,15.98
2019-03-24T11:17:37.447Z,16.03
2019-03-24T11:21:42.695Z,16.07
2019-03-24T11:25:48.040Z,16.12
2019-03-24T11:29:53.010Z,16.31
2019-03-24T11:33:58.036Z,16.42
2019-03-24T11:38:03.957Z,16.54
2019-03-24T11:42:30.620Z,16.71
2019-03-24T11:46:35.610Z,16.89
2019-03-24T11:50:42.722Z,17.00
2019-03-24T11:54:49.231Z,16.94
2019-03-24T11:58:54.432Z,16.94
2019-03-24T12:02:59.376Z,17.04
2019-03-24T12:07:04.822Z,17.11
2019-03-24T12:11:10.579Z,17.19
2019-03-24T12:15:15.706Z,17.33
2019-03-24T12:19:22.527Z,17.42
2019-03-24T12:23:29.443Z,17.42
2019-03-24T12:27:36.496Z,17.45
2019-03-24T12:31:42.873Z,17.56
2019-03-24T12:35:48.987Z,17.54
2019-03-24T12:39:54.089Z,17.64
2019-03-24T12:44:01.466Z,17.73
2019-03-24T12:48:06.471Z,17.79
2019-03-24T12:52:13.198Z,17.73
2019-03-24T12:56:18.060Z,17.84
2019-03-24T13:00:38.833Z,17.97
2019-03-24T13:04:44.353Z,17.99
2019-03-24T13:08:50.067Z,18.06
2019-03-24T13:12:55.588Z,18.09
2019-03-24T13:17:01.540Z,18.06
2019-03-24T13:21:06.911Z,18.15
2019-03-24T13:25:12.716Z,18.26
2019-03-24T13:29:18.333Z,18.36
2019-03-24T13:33:23.877Z,18.36
2019-03-24T13:37:29.473Z,18.37
2019-03-24T13:41:34.974Z,18.46
2019-03-24T13:45:40.505Z,18.44
2019-03-24T13:49:48.957Z,18.41
2019-03-24T13:53:54.558Z,18.48
2019-03-24T13:58:03.223Z,18.51
2019-03-24T14:02:09.321Z,18.42
2019-03-24T14:06:18.407Z,18.29
2019-03-24T14:10:27.293Z,18.31
2019-03-24T14:14:32.667Z,18.39
2019-03-24T14:18:43.841Z,18.42
2019-03-24T14:22:48.711Z,18.46
2019-03-24T14:26:54.024Z,18.38
2019-03-24T14:31:01.552Z,18.27
2019-03-24T14:35:06.897Z,18.27
2019-03-24T14:39:11.733Z,18.27
2019-03-24T14:43:17.001Z,18.26
2019-03-24T14:47:23.985Z,18.26
2019-03-24T14:51:36.379Z,18.27
2019-03-24T14:55:41.619Z,18.25
2019-03-24T14:59:47.084Z,18.28
2019-03-24T15:03:52.301Z,18.29
2019-03-24T15:07:57.898Z,18.25
2019-03-24T15:12:13.952Z,18.29
2019-03-24T15:16:18.749Z,18.27
2019-03-24T15:20:30.230Z,18.30
2019-03-24T15:24:36.588Z,18.33
2019-03-24T15:28:42.279Z,18.30
2019-03-24T15:37:17.634Z,18.25
2019-03-24T15:41:22.847Z,18.20
2019-03-24T15:45:28.359Z,18.21
2019-03-24T15:49:33.999Z,18.20
2019-03-24T15:53:39.096Z,18.22
2019-03-24T15:57:44.317Z,18.19
2019-03-24T16:01:49.451Z,18.15
2019-03-24T16:05:56.344Z,18.14
2019-03-24T16:10:06.287Z,18.08
2019-03-24T16:14:16.089Z,18.05
2019-03-24T16:18:22.587Z,18.00
2019-03-24T16:22:30.952Z,17.97
2019-03-24T16:26:37.654Z,17.94
2019-03-24T16:30:42.782Z,17.92
2019-03-24T16:34:47.586Z,17.87
2019-03-24T16:39:02.944Z,17.84
2019-03-24T16:43:02.660Z,17.80
2019-03-24T16:56:25.890Z,17.64
2019-03-24T17:00:34.245Z,17.60
2019-03-24T17:05:07.739Z,17.58
2019-03-24T17:09:15.451Z,17.53
2019-03-24T17:18:15.779Z,17.48
2019-03-24T17:22:23.180Z,17.41
2019-03-24T17:26:28.998Z,17.35
2019-03-24T17:30:35.536Z,17.18
2019-03-24T17:34:40.805Z,17.05
2019-03-24T17:42:59.919Z,16.81
2019-03-24T17:47:05.826Z,16.70
2019-03-24T17:51:13.097Z,16.65
2019-03-24T17:55:27.485Z,16.57
2019-03-24T18:04:31.789Z,16.44
2019-03-24T18:18:29.928Z,16.27
2019-03-24T18:27:42.394Z,16.06
2019-03-24T18:37:14.122Z,15.81
2019-03-24T18:46:51.752Z,15.57
2019-03-24T18:56:27.913Z,15.42
2019-03-24T19:00:35.036Z,15.41
2019-03-24T19:04:42.520Z,15.38
2019-03-24T19:08:51.521Z,15.37
2019-03-24T19:17:52.506Z,15.40
2019-03-24T19:22:42.564Z,15.40
2019-03-24T19:32:07.609Z,15.32
2019-03-24T19:36:13.751Z,15.23
2019-03-24T19:40:30.103Z,15.14
2019-03-24T19:44:35.569Z,15.08
2019-03-24T19:48:41.751Z,15.01
2019-03-24T19:52:47.516Z,14.93
2019-03-24T19:57:14.854Z,14.88
2019-03-24T20:01:20.969Z,14.80
2019-03-24T20:05:34.482Z,14.73
2019-03-24T20:09:45.204Z,14.67
2019-03-24T20:18:08.732Z,14.50
2019-03-24T20:22:13.675Z,14.47
2019-03-24T20:26:18.906Z,14.48
2019-03-24T20:30:23.802Z,14.47
2019-03-24T20:34:28.802Z,14.38
2019-03-24T20:38:33.853Z,14.29
2019-03-24T20:42:38.783Z,14.22
2019-03-24T20:46:44.225Z,14.17
2019-03-24T20:50:49.562Z,14.13
2019-03-24T20:54:54.561Z,14.09
2019-03-24T20:58:59.585Z,14.04
2019-03-24T21:03:05.425Z,13.99
2019-03-24T21:07:10.218Z,13.97
2019-03-24T21:11:15.071Z,13.96
2019-03-24T21:15:19.881Z,13.90
2019-03-24T21:19:24.709Z,13.89
2019-03-24T21:23:30.081Z,13.85
2019-03-24T21:27:34.961Z,13.82
2019-03-24T21:31:40.214Z,13.82
2019-03-24T21:35:45.107Z,13.82
2019-03-24T21:39:50.244Z,13.80
2019-03-24T21:43:55.227Z,13.79
2019-03-24T21:48:00.020Z,13.83
2019-03-24T21:52:05.258Z,13.86
2019-03-24T21:56:10.146Z,13.86
2019-03-24T22:00:16.726Z,13.89
2019-03-24T22:04:21.680Z,13.90
2019-03-24T22:08:26.536Z,13.90
2019-03-24T22:12:31.331Z,13.91
2019-03-24T22:16:36.217Z,13.91
2019-03-24T22:20:48.782Z,13.93
2019-03-24T22:24:49.143Z,13.88
2019-03-24T22:28:54.059Z,13.83
2019-03-24T22:32:58.832Z,13.72
2019-03-24T22:37:15.191Z,13.64
2019-03-24T22:41:10.436Z,13.58
2019-03-24T22:45:15.409Z,13.44
2019-03-24T22:49:20.510Z,13.28
2019-03-24T22:53:25.273Z,13.16
2019-03-24T22:57:32.578Z,13.05
2019-03-24T23:01:36.733Z,12.92
2019-03-24T23:05:41.451Z,12.78
2019-03-24T23:09:46.458Z,12.53
2019-03-24T23:13:51.186Z,12.26
2019-03-24T23:17:56.066Z,12.11
2019-03-24T23:22:01.199Z,12.01
2019-03-24T23:26:06.196Z,11.90
2019-03-24T23:30:11.339Z,11.81
2019-03-24T23:34:16.233Z,11.73
2019-03-24T23:38:21.062Z,11.64
2019-03-24T23:42:25.879Z,11.57
2019-03-24T23:46:30.666Z,11.54
2019-03-24T23:50:35.659Z,11.50
2019-03-24T23:54:40.442Z,11.51
2019-03-24T23:58:45.292Z,11.52
